Данни от 10.07.2020 г. 06:22:02

Температура вътрешна: 25.5 °C
Температура външна: 19.1 °C
Атмосферно налягане: 1001.4 hPa
Атмосферно налягане на морско равнище: 1019.3 hPa
Влажност: 42.1 %



История от последните 24 часа

Дата и часTin [°C]P [hPa]Psl [hPa]H [%]Tout [°C]
   10.07.2020 г. 06:00:01      25.5      1001.3      1019.2      43.1      19.4   
   10.07.2020 г. 05:30:01      25.9      1001.2      1019.0      42.0      19.1   
   10.07.2020 г. 05:00:01      25.9      1001.1      1019.0      41.5      20.5   
   10.07.2020 г. 04:30:02      25.9      1001.0      1018.9      42.3      20.4   
   10.07.2020 г. 04:00:01      25.6      1000.9      1018.8      42.1      20.4   
   10.07.2020 г. 03:30:02      26.0      1001.0      1018.8      43.1      21.1   
   10.07.2020 г. 03:00:01      25.8      1001.0      1018.8      43.5      20.4   
   10.07.2020 г. 02:30:02      25.8      1001.1      1018.9      44.7      22.1   
   10.07.2020 г. 02:00:01      26.3      1001.0      1018.9      41.9      22.0   
   10.07.2020 г. 01:30:01      26.3      1000.9      1018.8      41.7      21.8   
   10.07.2020 г. 01:00:01      26.4      1000.9      1018.8      43.5      22.5   
   10.07.2020 г. 00:30:01      26.5      1001.0      1018.9      44.0      22.5   
   10.07.2020 г. 00:00:01      26.4      1001.0      1018.8      44.3      21.9   
   09.07.2020 г. 23:30:01      26.5      1000.7      1018.6      43.3      21.3   
   09.07.2020 г. 23:00:01      26.7      1000.7      1018.6      44.1      21.5   
   09.07.2020 г. 22:30:01      27.5      1000.6      1018.5      46.7      22.5   
   09.07.2020 г. 22:00:01      27.4      1000.5      1018.3      46.4      22.6   
   09.07.2020 г. 21:30:01      27.1      1000.2      1018.1      47.1      24.1   
   09.07.2020 г. 21:00:01      27.2      1000.1      1018.0      47.4      25.3   
   09.07.2020 г. 20:30:01      27.2      1000.2      1018.0      47.2      26.5   
   09.07.2020 г. 20:00:01      27.2      1000.2      1018.1      45.9      27.6   
   09.07.2020 г. 19:30:01      27.1      1000.2      1018.0      45.1      28.6   
   09.07.2020 г. 19:00:01      27.1      1000.1      1018.0      44.2      28.8   
   09.07.2020 г. 18:30:01      27.1      1000.2      1018.0      44.3      30.8   
   09.07.2020 г. 18:00:01      27.1      1000.2      1018.0      44.2      33.9   
   09.07.2020 г. 17:30:01      27.0      1000.3      1018.2      43.8      34.9   
   09.07.2020 г. 17:00:01      27.1      1000.5      1018.4      44.2      33.7   
   09.07.2020 г. 16:30:01      27.0      1000.7      1018.6      43.7      32.5   
   09.07.2020 г. 16:00:01      26.9      1000.9      1018.8      43.6      31.3   
   09.07.2020 г. 15:30:01      26.9      1001.0      1018.9      43.2      30.1   
   09.07.2020 г. 15:00:02      26.9      1001.2      1019.1      43.4      28.9   
   09.07.2020 г. 14:30:01      26.8      1001.5      1019.4      42.4      27.8   
   09.07.2020 г. 14:00:02      26.8      1001.8      1019.7      43.5      27.5   
   09.07.2020 г. 13:30:01      26.8      1001.9      1019.7      44.2      27.3   
   09.07.2020 г. 13:00:02      26.8      1001.9      1019.8      43.4      26.8   
   09.07.2020 г. 12:30:01      26.8      1002.0      1019.8      44.1      26.3   
   09.07.2020 г. 12:00:02      26.7      1002.0      1019.9      45.5      25.8   
   09.07.2020 г. 11:30:01      26.6      1002.0      1019.9      45.0      25.1   
   09.07.2020 г. 11:00:02      26.6      1002.0      1019.9      46.3      24.5   
   09.07.2020 г. 10:30:01      26.4      1002.1      1019.9      46.2      23.9   
   09.07.2020 г. 10:00:01      26.4      1002.1      1019.9      46.4      23.1   
   09.07.2020 г. 09:30:01      26.3      1002.0      1019.9      47.0      22.4   
   09.07.2020 г. 09:00:01      26.2      1002.0      1019.9      46.6      21.6   
   09.07.2020 г. 08:30:01      25.9      1001.8      1019.7      46.2      20.8   
   09.07.2020 г. 08:00:01      25.4      1001.7      1019.5      46.8      19.9   
   09.07.2020 г. 07:30:01      25.2      1001.4      1019.3      46.4      19.0   
   09.07.2020 г. 07:00:01      25.3      1001.4      1019.2      45.8      18.5   
   09.07.2020 г. 06:30:01      25.1      1001.3      1019.2      44.9      18.3   

BaroSL graphic

TEMPE graphic